createdAt,value
2018-08-04T00:01:29.973Z,3.00
2018-08-04T00:04:03.855Z,3.50
2018-08-04T00:06:37.066Z,2.80
2018-08-04T00:09:12.398Z,3.00
2018-08-04T00:11:44.712Z,3.00
2018-08-04T00:14:17.408Z,3.10
2018-08-04T00:16:48.978Z,3.33
2018-08-04T00:19:21.906Z,3.30
2018-08-04T00:21:54.735Z,3.40
2018-08-04T00:24:28.427Z,3.20
2018-08-04T00:27:00.732Z,3.10
2018-08-04T00:29:33.305Z,2.80
2018-08-04T00:32:05.002Z,3.70
2018-08-04T00:34:38.429Z,3.17
2018-08-04T00:37:10.876Z,3.37
2018-08-04T00:39:43.084Z,3.07
2018-08-04T00:42:15.260Z,3.20
2018-08-04T00:44:47.829Z,3.13
2018-08-04T00:47:19.566Z,3.60
2018-08-04T00:49:51.362Z,3.60
2018-08-04T00:52:24.366Z,3.30
2018-08-04T00:54:56.891Z,3.70
2018-08-04T00:57:29.869Z,3.10
2018-08-04T01:00:04.188Z,2.83
2018-08-04T01:02:36.875Z,3.37
2018-08-04T01:05:06.559Z,3.10
2018-08-04T01:07:39.050Z,3.27
2018-08-04T01:10:12.039Z,3.20
2018-08-04T01:12:45.122Z,3.10
2018-08-04T01:15:17.917Z,5.50
2018-08-04T01:17:51.247Z,3.07
2018-08-04T01:20:22.137Z,2.97
2018-08-04T01:22:54.503Z,3.00
2018-08-04T01:25:24.331Z,3.10
2018-08-04T01:27:55.006Z,3.40
2018-08-04T01:30:25.948Z,3.00
2018-08-04T01:32:56.413Z,3.10
2018-08-04T01:35:28.452Z,3.30
2018-08-04T01:37:58.013Z,3.50
2018-08-04T01:40:27.066Z,3.40
2018-08-04T01:42:56.194Z,3.40
2018-08-04T01:45:25.269Z,3.40
2018-08-04T01:47:54.326Z,3.03
2018-08-04T01:50:23.949Z,3.30
2018-08-04T01:52:53.063Z,3.50
2018-08-04T01:55:25.337Z,3.50
2018-08-04T01:57:55.311Z,3.40
2018-08-04T02:00:25.704Z,3.73
2018-08-04T02:02:54.810Z,3.43
2018-08-04T02:05:23.837Z,3.53
2018-08-04T02:07:52.926Z,3.27
2018-08-04T02:10:23.947Z,3.40
2018-08-04T02:12:53.035Z,3.20
2018-08-04T02:15:23.476Z,3.47
2018-08-04T02:17:52.562Z,3.23
2018-08-04T02:20:22.521Z,3.43
2018-08-04T02:22:51.808Z,3.23
2018-08-04T02:25:20.794Z,3.27
2018-08-04T02:27:49.969Z,3.20
2018-08-04T02:30:19.067Z,3.53
2018-08-04T02:32:48.147Z,3.20
2018-08-04T02:35:25.198Z,3.30
2018-08-04T02:37:58.470Z,3.00
2018-08-04T02:40:29.629Z,3.20
2018-08-04T02:43:00.501Z,3.50
2018-08-04T02:45:29.719Z,3.47
2018-08-04T02:47:58.855Z,3.60
2018-08-04T02:50:30.172Z,3.20
2018-08-04T02:53:06.671Z,3.57
2018-08-04T02:55:35.964Z,3.60
2018-08-04T02:58:07.976Z,3.37
2018-08-04T03:00:40.160Z,3.57
2018-08-04T03:03:09.448Z,3.17
2018-08-04T03:05:41.018Z,3.40
2018-08-04T03:08:12.872Z,3.30
2018-08-04T03:10:44.250Z,2.80
2018-08-04T03:13:15.025Z,3.43
2018-08-04T03:15:46.155Z,3.37
2018-08-04T03:18:17.517Z,3.57
2018-08-04T03:20:49.193Z,3.43
2018-08-04T03:23:21.996Z,3.37
2018-08-04T03:25:53.502Z,3.30
2018-08-04T03:28:25.250Z,3.30
2018-08-04T03:30:57.877Z,3.17
2018-08-04T03:33:29.875Z,3.17
2018-08-04T03:36:02.168Z,3.40
2018-08-04T03:38:34.866Z,3.60
2018-08-04T03:41:07.680Z,3.17
2018-08-04T03:43:37.782Z,3.23
2018-08-04T03:46:10.455Z,3.60
2018-08-04T03:48:42.527Z,3.40
2018-08-04T03:51:14.292Z,3.30
2018-08-04T03:53:45.763Z,3.30
2018-08-04T03:56:17.604Z,3.20
2018-08-04T03:58:49.382Z,3.10
2018-08-04T04:01:18.767Z,3.40
2018-08-04T04:03:47.792Z,3.47
2018-08-04T04:06:16.869Z,3.70
2018-08-04T04:08:45.757Z,3.37
2018-08-04T04:11:14.707Z,3.23
2018-08-04T04:13:43.815Z,3.27
2018-08-04T04:16:12.882Z,3.20
2018-08-04T04:18:41.928Z,3.60
2018-08-04T04:21:11.015Z,3.33
2018-08-04T04:23:40.811Z,3.20
2018-08-04T04:26:09.895Z,3.37
2018-08-04T04:28:39.518Z,3.13
2018-08-04T04:31:08.559Z,3.00
2018-08-04T04:33:37.722Z,3.37
2018-08-04T04:36:06.807Z,3.30
2018-08-04T04:38:35.939Z,4.07
2018-08-04T04:41:05.072Z,3.00
2018-08-04T04:43:34.140Z,3.23
2018-08-04T04:46:03.215Z,3.43
2018-08-04T04:48:32.153Z,3.20
2018-08-04T04:51:00.843Z,3.43
2018-08-04T04:53:29.723Z,3.27
2018-08-04T04:55:59.156Z,3.40
2018-08-04T04:58:28.298Z,3.17
2018-08-04T05:00:58.070Z,3.30
2018-08-04T05:03:27.127Z,3.10
2018-08-04T05:05:56.231Z,3.27
2018-08-04T05:08:25.298Z,3.10
2018-08-04T05:10:54.382Z,2.87
2018-08-04T05:13:23.444Z,2.93
2018-08-04T05:15:52.451Z,3.60
2018-08-04T05:18:21.262Z,3.00
2018-08-04T05:20:50.131Z,3.30
2018-08-04T05:23:19.208Z,3.07
2018-08-04T05:25:48.282Z,2.90
2018-08-04T05:28:17.361Z,3.20
2018-08-04T05:30:46.525Z,3.30
2018-08-04T05:33:15.606Z,3.10
2018-08-04T05:35:44.997Z,3.30
2018-08-04T05:38:13.941Z,3.30
2018-08-04T05:40:43.077Z,3.07
2018-08-04T05:43:11.973Z,3.30
2018-08-04T05:45:40.895Z,2.90
2018-08-04T05:48:09.977Z,3.27
2018-08-04T05:50:39.081Z,2.87
2018-08-04T05:53:08.120Z,3.40
2018-08-04T05:55:37.216Z,3.10
2018-08-04T05:58:06.802Z,2.83
2018-08-04T06:00:35.874Z,3.13
2018-08-04T06:03:05.978Z,2.93
2018-08-04T06:05:35.055Z,2.97
2018-08-04T06:08:03.886Z,2.70
2018-08-04T06:10:32.872Z,3.10
2018-08-04T06:13:01.967Z,3.10
2018-08-04T06:15:31.061Z,3.17
2018-08-04T06:18:00.533Z,2.70
2018-08-04T06:20:29.424Z,2.90
2018-08-04T06:22:58.318Z,3.03
2018-08-04T06:25:27.106Z,2.70
2018-08-04T06:27:56.086Z,3.00
2018-08-04T06:30:24.928Z,3.60
2018-08-04T06:32:57.670Z,3.10
2018-08-04T06:35:32.825Z,3.23
2018-08-04T06:38:04.360Z,3.50
2018-08-04T06:40:33.745Z,3.20
2018-08-04T06:43:02.557Z,3.40
2018-08-04T06:45:31.400Z,2.80
2018-08-04T06:48:00.429Z,3.33
2018-08-04T06:50:29.241Z,3.20
2018-08-04T06:52:58.739Z,3.10
2018-08-04T06:55:27.899Z,2.97
2018-08-04T06:57:57.194Z,3.07
2018-08-04T07:00:26.441Z,3.23
2018-08-04T07:02:55.381Z,2.90
2018-08-04T07:05:24.285Z,3.20
2018-08-04T07:07:53.343Z,3.30
2018-08-04T07:10:22.396Z,3.47
2018-08-04T07:12:51.493Z,3.07
2018-08-04T07:15:20.554Z,3.10
2018-08-04T07:17:49.386Z,3.10
2018-08-04T07:20:18.293Z,3.00
2018-08-04T07:22:47.363Z,3.37
2018-08-04T07:25:16.413Z,2.87
2018-08-04T07:27:45.558Z,3.40
2018-08-04T07:30:15.606Z,2.90
2018-08-04T07:32:45.702Z,3.00
2018-08-04T07:35:14.848Z,3.10
2018-08-04T07:37:44.178Z,3.20
2018-08-04T07:40:13.263Z,2.83
2018-08-04T07:42:42.536Z,3.00
2018-08-04T07:45:11.407Z,3.97
2018-08-04T07:47:40.415Z,4.37
2018-08-04T07:50:09.535Z,3.00
2018-08-04T07:52:39.367Z,2.50
2018-08-04T07:55:08.466Z,3.03
2018-08-04T07:57:37.541Z,3.10
2018-08-04T08:00:07.573Z,3.20
2018-08-04T08:02:36.826Z,3.30
2018-08-04T08:05:06.040Z,3.47
2018-08-04T08:07:34.855Z,3.37
2018-08-04T08:10:03.844Z,3.27
2018-08-04T08:12:33.006Z,3.40
2018-08-04T08:15:02.074Z,3.00
2018-08-04T08:17:32.216Z,3.40
2018-08-04T08:20:01.471Z,2.90
2018-08-04T08:22:37.710Z,3.13
2018-08-04T08:25:07.856Z,4.27
2018-08-04T08:27:37.402Z,3.67
2018-08-04T08:30:08.213Z,2.90
2018-08-04T08:32:37.387Z,3.30
2018-08-04T08:35:06.883Z,3.20
2018-08-04T08:37:36.000Z,3.60
2018-08-04T08:40:04.935Z,3.47
2018-08-04T08:42:34.010Z,3.10
2018-08-04T08:45:04.425Z,3.50
2018-08-04T08:47:33.580Z,4.00
2018-08-04T08:50:04.058Z,3.30
2018-08-04T08:52:35.405Z,3.40
2018-08-04T08:55:04.939Z,3.80
2018-08-04T08:57:34.395Z,7.90
2018-08-04T09:00:04.160Z,3.37
2018-08-04T09:02:33.213Z,3.60
2018-08-04T09:05:02.365Z,3.10
2018-08-04T09:07:31.464Z,3.27
2018-08-04T09:10:00.589Z,3.43
2018-08-04T09:12:30.071Z,4.13
2018-08-04T09:14:59.204Z,3.20
2018-08-04T09:17:28.451Z,2.93
2018-08-04T09:19:58.274Z,3.73
2018-08-04T09:22:27.161Z,3.80
2018-08-04T09:24:56.058Z,4.20
2018-08-04T09:27:24.921Z,3.60
2018-08-04T09:29:53.936Z,3.33
2018-08-04T09:32:22.705Z,3.73
2018-08-04T09:34:51.745Z,3.57
2018-08-04T09:37:20.587Z,2.90
2018-08-04T09:39:49.609Z,3.33
2018-08-04T09:42:18.438Z,3.73
2018-08-04T09:44:47.403Z,5.10
2018-08-04T09:47:16.212Z,3.97
2018-08-04T09:49:45.204Z,3.80
2018-08-04T09:52:14.299Z,3.40
2018-08-04T09:54:43.371Z,5.00
2018-08-04T09:57:12.449Z,3.60
2018-08-04T09:59:41.651Z,4.17
2018-08-04T10:02:10.358Z,3.30
2018-08-04T10:04:39.796Z,3.13
2018-08-04T10:07:09.421Z,3.37
2018-08-04T10:09:38.394Z,3.70
2018-08-04T10:12:07.401Z,3.90
2018-08-04T10:14:36.516Z,3.80
2018-08-04T10:17:05.790Z,3.60
2018-08-04T10:19:34.839Z,3.20
2018-08-04T10:22:04.067Z,3.13
2018-08-04T10:24:33.827Z,2.87
2018-08-04T10:27:03.026Z,3.13
2018-08-04T10:29:32.121Z,3.37
2018-08-04T10:32:01.368Z,3.30
2018-08-04T10:34:30.457Z,3.43
2018-08-04T10:36:59.606Z,3.63
2018-08-04T10:39:28.686Z,3.37
2018-08-04T10:41:57.800Z,3.40
2018-08-04T10:44:26.872Z,3.70
2018-08-04T10:46:56.113Z,3.80
2018-08-04T10:49:25.618Z,3.87
2018-08-04T10:51:54.829Z,3.53
2018-08-04T10:54:23.672Z,4.23
2018-08-04T10:56:52.423Z,4.93
2018-08-04T10:59:21.425Z,3.60
2018-08-04T11:01:54.878Z,3.70
2018-08-04T11:04:25.518Z,3.60
2018-08-04T11:06:56.255Z,3.70
2018-08-04T11:09:25.424Z,3.40
2018-08-04T11:11:54.462Z,3.67
2018-08-04T11:14:24.176Z,4.93
2018-08-04T11:16:53.190Z,4.27
2018-08-04T11:19:22.282Z,3.90
2018-08-04T11:21:51.341Z,3.30
2018-08-04T11:24:20.456Z,3.73
2018-08-04T11:26:49.937Z,3.83
2018-08-04T11:29:18.935Z,3.90
2018-08-04T11:31:47.904Z,3.60
2018-08-04T11:34:16.911Z,4.10
2018-08-04T11:36:46.003Z,3.60
2018-08-04T11:39:15.022Z,3.73
2018-08-04T11:41:44.130Z,4.40
2018-08-04T11:44:13.170Z,4.87
2018-08-04T11:46:42.190Z,3.70
2018-08-04T11:49:11.066Z,6.03
2018-08-04T11:51:40.100Z,6.10
2018-08-04T11:54:09.127Z,3.90
2018-08-04T11:56:38.215Z,4.50
2018-08-04T11:59:07.355Z,3.50
2018-08-04T12:01:36.687Z,3.93
2018-08-04T12:04:05.762Z,3.50
2018-08-04T12:06:34.646Z,4.00
2018-08-04T12:09:04.337Z,3.93
2018-08-04T12:11:33.454Z,3.80
2018-08-04T12:14:02.854Z,3.90
2018-08-04T12:16:31.982Z,3.90
2018-08-04T12:19:01.223Z,3.50
2018-08-04T12:21:30.317Z,3.90
2018-08-04T12:23:59.626Z,3.80
2018-08-04T12:26:28.651Z,3.67
2018-08-04T12:28:57.598Z,3.93
2018-08-04T12:31:27.542Z,5.30
2018-08-04T12:33:56.715Z,3.83
2018-08-04T12:36:25.678Z,3.63
2018-08-04T12:38:54.577Z,3.40
2018-08-04T12:41:23.457Z,3.80
2018-08-04T12:43:52.401Z,3.70
2018-08-04T12:46:21.427Z,4.43
2018-08-04T12:48:50.953Z,3.60
2018-08-04T12:51:19.983Z,3.60
2018-08-04T12:53:49.108Z,3.60
2018-08-04T12:56:18.838Z,3.70
2018-08-04T12:58:47.910Z,3.90
2018-08-04T13:01:17.149Z,3.73
2018-08-04T13:03:46.008Z,4.00
2018-08-04T13:06:14.981Z,3.87
2018-08-04T13:08:44.194Z,3.40
2018-08-04T13:11:13.220Z,3.90
2018-08-04T13:13:42.317Z,4.03
2018-08-04T13:16:11.975Z,3.90
2018-08-04T13:18:41.185Z,3.83
2018-08-04T13:21:10.256Z,3.90
2018-08-04T13:23:39.350Z,3.63
2018-08-04T13:26:08.527Z,3.73
2018-08-04T13:28:37.790Z,3.90
2018-08-04T13:31:06.899Z,3.87
2018-08-04T13:33:35.707Z,3.90
2018-08-04T13:36:04.409Z,3.57
2018-08-04T13:38:33.346Z,3.77
2018-08-04T13:41:02.506Z,3.90
2018-08-04T13:43:31.684Z,3.77
2018-08-04T13:46:00.805Z,3.97
2018-08-04T13:48:29.941Z,4.30
2018-08-04T13:50:58.766Z,4.27
2018-08-04T13:53:27.730Z,4.30
2018-08-04T13:55:58.529Z,3.93
2018-08-04T13:58:27.384Z,3.97
2018-08-04T14:00:56.265Z,4.00
2018-08-04T14:03:25.357Z,3.97
2018-08-04T14:05:54.495Z,4.00
2018-08-04T14:08:23.312Z,4.37
2018-08-04T14:10:52.345Z,4.00
2018-08-04T14:13:21.502Z,4.30
2018-08-04T14:15:50.599Z,4.17
2018-08-04T14:18:19.658Z,4.37
2018-08-04T14:20:48.774Z,4.20
2018-08-04T14:23:17.917Z,4.37
2018-08-04T14:25:46.978Z,4.20
2018-08-04T14:28:16.037Z,4.50
2018-08-04T14:30:45.136Z,4.27
2018-08-04T14:33:14.317Z,4.50
2018-08-04T14:35:44.168Z,3.97
2018-08-04T14:38:13.286Z,9.47
2018-08-04T14:40:42.398Z,5.37
2018-08-04T14:43:11.521Z,5.30
2018-08-04T14:45:40.372Z,4.50
2018-08-04T14:48:09.633Z,5.70
2018-08-04T14:50:38.808Z,5.40
2018-08-04T14:53:07.895Z,4.53
2018-08-04T14:55:36.950Z,7.40
2018-08-04T14:58:06.157Z,4.57
2018-08-04T15:00:35.323Z,5.03
2018-08-04T15:03:04.432Z,4.90
2018-08-04T15:05:33.843Z,4.73
2018-08-04T15:08:02.955Z,4.50
2018-08-04T15:10:32.034Z,4.13
2018-08-04T15:13:01.110Z,5.00
2018-08-04T15:15:30.306Z,4.50
2018-08-04T15:17:59.371Z,4.63
2018-08-04T15:20:28.414Z,4.60
2018-08-04T15:22:57.489Z,4.43
2018-08-04T15:25:27.187Z,4.50
2018-08-04T15:27:56.692Z,4.63
2018-08-04T15:30:25.745Z,4.50
2018-08-04T15:32:54.616Z,4.70
2018-08-04T15:35:23.513Z,4.80
2018-08-04T15:37:52.594Z,4.73
2018-08-04T15:40:21.651Z,4.73
2018-08-04T15:42:50.930Z,4.77
2018-08-04T15:45:20.050Z,4.40
2018-08-04T15:47:49.065Z,4.63
2018-08-04T15:50:18.141Z,5.37
2018-08-04T15:52:47.250Z,4.63
2018-08-04T15:55:16.989Z,5.97
2018-08-04T15:57:45.831Z,5.03
2018-08-04T16:00:14.800Z,5.13
2018-08-04T16:02:43.909Z,4.80
2018-08-04T16:05:12.969Z,4.60
2018-08-04T16:07:42.083Z,5.17
2018-08-04T16:10:11.170Z,5.53
2018-08-04T16:12:40.230Z,5.07
2018-08-04T16:15:09.342Z,5.17
2018-08-04T16:17:38.386Z,5.40
2018-08-04T16:20:13.224Z,5.37
2018-08-04T16:22:42.285Z,4.67
2018-08-04T16:25:11.377Z,5.30
2018-08-04T16:27:40.718Z,5.23
2018-08-04T16:30:10.397Z,5.50
2018-08-04T16:32:39.993Z,5.03
2018-08-04T16:35:10.024Z,4.93
2018-08-04T16:37:39.063Z,5.23
2018-08-04T16:40:08.167Z,5.03
2018-08-04T16:42:37.257Z,5.20
2018-08-04T16:45:06.393Z,5.23
2018-08-04T16:47:35.601Z,5.13
2018-08-04T16:50:04.609Z,5.50
2018-08-04T16:52:33.708Z,5.03
2018-08-04T16:55:03.361Z,4.87
2018-08-04T16:57:32.475Z,4.83
2018-08-04T17:00:01.470Z,5.10
2018-08-04T17:02:30.554Z,4.97
2018-08-04T17:04:59.921Z,4.70
2018-08-04T17:07:28.934Z,6.27
2018-08-04T17:09:58.000Z,4.70
2018-08-04T17:12:26.868Z,4.90
2018-08-04T17:14:55.854Z,4.70
2018-08-04T17:17:24.937Z,4.37
2018-08-04T17:19:53.781Z,4.10
2018-08-04T17:22:22.447Z,4.10
2018-08-04T17:24:51.178Z,4.40
2018-08-04T17:27:20.100Z,4.07
2018-08-04T17:29:48.917Z,4.10
2018-08-04T17:32:17.604Z,4.30
2018-08-04T17:34:46.259Z,3.80
2018-08-04T17:37:15.320Z,4.00
2018-08-04T17:39:45.075Z,4.10
2018-08-04T17:42:13.803Z,4.30
2018-08-04T17:44:42.824Z,4.07
2018-08-04T17:47:11.920Z,3.70
2018-08-04T17:49:41.010Z,3.87
2018-08-04T17:52:10.209Z,3.80
2018-08-04T17:54:39.117Z,3.90
2018-08-04T17:57:08.189Z,3.60
2018-08-04T17:59:37.294Z,3.87
2018-08-04T18:02:06.505Z,4.37
2018-08-04T18:04:35.351Z,3.53
2018-08-04T18:07:04.331Z,3.70
2018-08-04T18:09:33.559Z,4.30
2018-08-04T18:12:02.844Z,3.90
2018-08-04T18:14:31.960Z,4.37
2018-08-04T18:17:00.839Z,4.17
2018-08-04T18:19:29.912Z,4.47
2018-08-04T18:22:00.114Z,4.30
2018-08-04T18:24:29.318Z,3.90
2018-08-04T18:26:58.687Z,3.93
2018-08-04T18:29:27.924Z,3.50
2018-08-04T18:31:57.028Z,4.27
2018-08-04T18:34:26.209Z,4.27
2018-08-04T18:36:55.371Z,4.00
2018-08-04T18:39:25.261Z,4.30
2018-08-04T18:41:54.377Z,4.57
2018-08-04T18:44:23.561Z,4.50
2018-08-04T18:46:52.732Z,4.50
2018-08-04T18:49:22.479Z,14.83
2018-08-04T18:51:51.563Z,9.80
2018-08-04T18:54:20.722Z,5.30
2018-08-04T18:56:49.946Z,5.20
2018-08-04T18:59:19.169Z,4.37
2018-08-04T19:01:48.319Z,5.00
2018-08-04T19:04:17.326Z,4.20
2018-08-04T19:06:46.455Z,3.63
2018-08-04T19:09:15.645Z,4.37
2018-08-04T19:11:44.753Z,3.87
2018-08-04T19:14:13.996Z,4.13
2018-08-04T19:16:43.072Z,3.97
2018-08-04T19:19:11.968Z,4.10
2018-08-04T19:21:41.263Z,4.30
2018-08-04T19:24:10.290Z,4.20
2018-08-04T19:26:39.571Z,4.50
2018-08-04T19:29:08.423Z,3.90
2018-08-04T19:31:37.543Z,4.20
2018-08-04T19:34:06.490Z,4.30
2018-08-04T19:36:35.935Z,4.50
2018-08-04T19:39:07.468Z,5.70
2018-08-04T19:41:36.889Z,5.60
2018-08-04T19:44:06.500Z,5.00
2018-08-04T19:46:35.538Z,4.40
2018-08-04T19:49:04.699Z,4.40
2018-08-04T19:51:34.189Z,4.67
2018-08-04T19:54:03.461Z,4.43
2018-08-04T19:56:32.848Z,4.03
2018-08-04T19:59:02.062Z,4.30
2018-08-04T20:01:32.136Z,4.20
2018-08-04T20:04:01.193Z,3.90
2018-08-04T20:06:30.927Z,4.30
2018-08-04T20:08:59.798Z,4.87
2018-08-04T20:11:28.624Z,5.07
2018-08-04T20:13:57.723Z,4.47
2018-08-04T20:16:26.813Z,4.90
2018-08-04T20:18:55.945Z,5.20
2018-08-04T20:21:25.086Z,5.77
2018-08-04T20:23:54.238Z,4.70
2018-08-04T20:26:23.618Z,4.53
2018-08-04T20:28:53.049Z,4.53
2018-08-04T20:31:21.898Z,4.30
2018-08-04T20:33:51.499Z,4.60
2018-08-04T20:36:20.615Z,4.57
2018-08-04T20:38:50.091Z,4.47
2018-08-04T20:41:19.502Z,4.97
2018-08-04T20:43:48.561Z,5.00
2018-08-04T20:46:17.826Z,4.83
2018-08-04T20:48:46.922Z,5.20
2018-08-04T20:51:16.027Z,5.07
2018-08-04T20:53:44.781Z,4.90
2018-08-04T20:56:13.734Z,5.00
2018-08-04T20:58:45.533Z,4.83
2018-08-04T21:01:25.979Z,4.90
2018-08-04T21:03:55.013Z,5.37
2018-08-04T21:06:23.861Z,5.20
2018-08-04T21:08:52.746Z,5.30
2018-08-04T21:11:21.888Z,6.10
2018-08-04T21:13:50.678Z,4.70
2018-08-04T21:16:19.422Z,5.13
2018-08-04T21:18:48.392Z,5.37
2018-08-04T21:21:17.507Z,5.20
2018-08-04T21:23:46.615Z,5.13
2018-08-04T21:26:15.738Z,5.20
2018-08-04T21:28:44.620Z,4.93
2018-08-04T21:31:13.566Z,5.37
2018-08-04T21:33:43.032Z,6.40
2018-08-04T21:36:12.126Z,5.63
2018-08-04T21:38:41.240Z,5.10
2018-08-04T21:41:10.320Z,4.87
2018-08-04T21:43:39.321Z,5.20
2018-08-04T21:46:08.386Z,5.33
2018-08-04T21:48:37.528Z,4.90
2018-08-04T21:51:06.669Z,4.77
2018-08-04T21:53:35.771Z,5.20
2018-08-04T21:56:04.634Z,4.53
2018-08-04T21:58:33.620Z,4.73
2018-08-04T22:01:08.131Z,4.70
2018-08-04T22:03:37.329Z,5.00
2018-08-04T22:06:06.699Z,4.20
2018-08-04T22:08:47.315Z,3.83
2018-08-04T22:11:16.163Z,4.10
2018-08-04T22:13:45.252Z,4.77
2018-08-04T22:16:14.335Z,4.53
2018-08-04T22:18:43.729Z,4.50
2018-08-04T22:21:12.774Z,4.50
2018-08-04T22:23:41.854Z,4.40
2018-08-04T22:26:11.280Z,4.60
2018-08-04T22:28:40.386Z,4.50
2018-08-04T22:31:09.574Z,4.03
2018-08-04T22:33:38.761Z,4.50
2018-08-04T22:36:08.040Z,4.47
2018-08-04T22:38:37.273Z,4.30
2018-08-04T22:41:06.887Z,4.00
2018-08-04T22:43:36.130Z,3.97
2018-08-04T22:46:10.597Z,4.27
2018-08-04T22:48:40.122Z,4.17
2018-08-04T22:51:08.918Z,4.40
2018-08-04T22:53:38.127Z,3.70
2018-08-04T22:56:07.268Z,4.10
2018-08-04T22:58:36.385Z,4.90
2018-08-04T23:01:05.712Z,4.30
2018-08-04T23:03:34.817Z,4.77
2018-08-04T23:06:03.864Z,4.03
2018-08-04T23:08:35.220Z,4.23
2018-08-04T23:11:05.543Z,4.23
2018-08-04T23:13:34.666Z,3.90
2018-08-04T23:16:04.060Z,3.83
2018-08-04T23:18:33.140Z,3.97
2018-08-04T23:21:02.358Z,3.73
2018-08-04T23:23:31.095Z,3.80
2018-08-04T23:26:00.105Z,4.10
2018-08-04T23:28:28.933Z,3.93
2018-08-04T23:30:58.194Z,3.90
2018-08-04T23:33:29.315Z,3.97
2018-08-04T23:35:59.296Z,4.20
2018-08-04T23:38:30.191Z,3.83
2018-08-04T23:41:00.457Z,3.60
2018-08-04T23:43:33.437Z,3.77
2018-08-04T23:46:04.625Z,3.90
2018-08-04T23:48:35.143Z,4.17
2018-08-04T23:51:06.783Z,4.30
2018-08-04T23:53:38.961Z,4.07
2018-08-04T23:56:08.437Z,4.43
2018-08-04T23:58:37.675Z,4.30
